createdAt,value
2023-05-02T00:00:55.536Z,13.41
2023-05-02T00:03:58.699Z,13.57
2023-05-02T00:07:01.766Z,13.60
2023-05-02T00:10:06.089Z,13.35
2023-05-02T00:13:08.724Z,13.43
2023-05-02T00:16:11.799Z,13.42
2023-05-02T00:19:15.045Z,13.41
2023-05-02T00:22:17.798Z,13.51
2023-05-02T00:25:20.585Z,13.49
2023-05-02T00:28:23.577Z,13.33
2023-05-02T00:31:26.380Z,13.57
2023-05-02T00:34:30.867Z,13.32
2023-05-02T00:37:33.361Z,13.32
2023-05-02T00:40:47.812Z,13.22
2023-05-02T00:43:50.547Z,13.40
2023-05-02T00:46:54.637Z,13.50
2023-05-02T00:49:57.912Z,13.32
2023-05-02T00:53:01.151Z,13.56
2023-05-02T00:56:03.762Z,13.43
2023-05-02T00:59:08.896Z,13.35
2023-05-02T01:02:53.530Z,13.44
2023-05-02T01:06:10.645Z,13.42
2023-05-02T01:09:27.393Z,13.40
2023-05-02T01:12:41.097Z,13.28
2023-05-02T01:15:45.856Z,13.57
2023-05-02T01:18:50.646Z,13.58
2023-05-02T01:21:55.080Z,13.59
2023-05-02T01:25:16.820Z,13.59
2023-05-02T01:28:38.805Z,13.59
2023-05-02T01:31:46.450Z,13.80
2023-05-02T01:34:52.394Z,13.72
2023-05-02T01:37:57.646Z,13.63
2023-05-02T01:41:05.164Z,13.48
2023-05-02T01:44:09.819Z,13.40
2023-05-02T01:47:13.565Z,13.45
2023-05-02T01:50:21.145Z,13.45
2023-05-02T01:53:26.632Z,13.39
2023-05-02T01:56:33.302Z,13.34
2023-05-02T01:59:37.905Z,13.25
2023-05-02T02:02:46.654Z,13.16
2023-05-02T02:05:53.060Z,13.12
2023-05-02T02:08:55.934Z,13.14
2023-05-02T02:12:03.370Z,13.07
2023-05-02T02:15:27.413Z,13.00
2023-05-02T02:18:39.191Z,13.03
2023-05-02T02:21:50.219Z,13.00
2023-05-02T02:24:54.503Z,13.09
2023-05-02T02:27:58.169Z,13.06
2023-05-02T02:31:00.967Z,13.03
2023-05-02T02:34:05.090Z,12.77
2023-05-02T02:37:19.167Z,12.62
2023-05-02T02:40:34.679Z,12.64
2023-05-02T02:43:52.413Z,12.49
2023-05-02T02:47:10.684Z,12.57
2023-05-02T02:50:18.996Z,12.40
2023-05-02T02:53:31.038Z,12.33
2023-05-02T02:56:40.422Z,12.28
2023-05-02T02:59:55.785Z,12.21
2023-05-02T03:03:00.429Z,12.37
2023-05-02T03:06:04.809Z,12.05
2023-05-02T03:09:15.148Z,11.93
2023-05-02T03:12:18.364Z,11.83
2023-05-02T03:15:43.272Z,11.75
2023-05-02T03:18:46.507Z,11.72
2023-05-02T03:21:50.118Z,11.84
2023-05-02T03:24:54.430Z,12.02
2023-05-02T03:28:00.213Z,11.91
2023-05-02T03:31:03.722Z,11.91
2023-05-02T03:34:07.240Z,12.06
2023-05-02T03:37:11.049Z,11.93
2023-05-02T03:40:14.838Z,11.90
2023-05-02T03:43:18.093Z,11.91
2023-05-02T03:46:21.507Z,11.86
2023-05-02T03:49:24.977Z,11.83
2023-05-02T03:52:28.720Z,11.79
2023-05-02T03:55:32.251Z,11.86
2023-05-02T03:58:38.660Z,11.84
2023-05-02T04:01:41.553Z,12.01
2023-05-02T04:04:45.494Z,12.26
2023-05-02T04:07:49.751Z,12.45
2023-05-02T04:10:53.084Z,12.74
2023-05-02T04:13:56.852Z,12.65
2023-05-02T04:16:59.867Z,12.69
2023-05-02T04:20:05.560Z,12.48
2023-05-02T04:23:09.202Z,12.36
2023-05-02T04:26:11.883Z,12.48
2023-05-02T04:29:15.356Z,12.49
2023-05-02T04:32:18.771Z,12.80
2023-05-02T04:35:21.901Z,13.15
2023-05-02T04:38:24.695Z,13.62
2023-05-02T04:41:28.199Z,14.03
2023-05-02T04:44:31.520Z,14.51
2023-05-02T04:47:34.450Z,14.28
2023-05-02T04:50:37.423Z,14.19
2023-05-02T04:53:40.482Z,14.41
2023-05-02T04:56:43.252Z,14.11
2023-05-02T04:59:47.362Z,14.07
2023-05-02T05:02:50.067Z,14.70
2023-05-02T05:05:53.060Z,15.21
2023-05-02T05:08:57.119Z,15.53
2023-05-02T05:12:00.676Z,16.05
2023-05-02T05:15:04.476Z,16.16
2023-05-02T05:18:07.674Z,16.31
2023-05-02T05:21:11.088Z,16.80
2023-05-02T05:24:16.462Z,16.39
2023-05-02T05:27:19.406Z,16.60
2023-05-02T05:30:23.233Z,16.99
2023-05-02T05:33:26.112Z,16.67
2023-05-02T05:36:29.251Z,16.56
2023-05-02T05:39:32.639Z,16.66
2023-05-02T05:42:36.226Z,16.54
2023-05-02T05:45:39.627Z,16.78
2023-05-02T05:48:43.032Z,17.07
2023-05-02T05:51:47.670Z,16.92
2023-05-02T05:54:55.737Z,17.47
2023-05-02T05:57:58.921Z,18.45
2023-05-02T06:01:02.169Z,18.72
2023-05-02T06:04:05.706Z,18.23
2023-05-02T06:07:09.407Z,18.05
2023-05-02T06:10:12.500Z,17.41
2023-05-02T06:13:15.830Z,17.86
2023-05-02T06:16:20.192Z,18.10
2023-05-02T06:19:22.771Z,18.65
2023-05-02T06:22:25.973Z,19.58
2023-05-02T06:25:29.047Z,19.60
2023-05-02T06:28:32.228Z,19.80
2023-05-02T06:31:34.819Z,20.34
2023-05-02T06:34:37.661Z,19.70
2023-05-02T06:37:40.283Z,20.39
2023-05-02T06:40:45.308Z,20.47
2023-05-02T06:43:47.871Z,19.30
2023-05-02T06:46:50.782Z,19.22
2023-05-02T06:49:53.860Z,20.22
2023-05-02T06:52:56.649Z,20.65
2023-05-02T06:55:59.763Z,21.89
2023-05-02T06:59:02.940Z,21.56
2023-05-02T07:02:06.829Z,20.91
2023-05-02T07:05:10.404Z,22.30
2023-05-02T07:08:13.098Z,21.72
2023-05-02T07:11:16.177Z,20.01
2023-05-02T07:14:18.845Z,19.63
2023-05-02T07:17:22.461Z,20.43
2023-05-02T07:20:25.263Z,21.16
2023-05-02T07:23:28.439Z,22.01
2023-05-02T07:26:31.350Z,22.10
2023-05-02T07:29:34.214Z,22.10
2023-05-02T07:32:37.016Z,22.72
2023-05-02T07:35:39.834Z,20.89
2023-05-02T07:38:42.670Z,20.10
2023-05-02T07:41:50.061Z,21.54
2023-05-02T07:44:52.534Z,21.32
2023-05-02T07:47:55.802Z,19.99
2023-05-02T07:51:06.979Z,19.68
2023-05-02T07:54:20.334Z,20.57
2023-05-02T07:57:23.636Z,22.14
2023-05-02T08:00:26.639Z,21.84
2023-05-02T08:03:31.042Z,22.27
2023-05-02T08:06:35.069Z,22.31
2023-05-02T08:09:40.734Z,23.22
2023-05-02T08:12:43.826Z,22.07
2023-05-02T08:15:46.913Z,21.71
2023-05-02T08:18:49.619Z,23.02
2023-05-02T08:21:54.263Z,22.42
2023-05-02T08:24:56.796Z,22.45
2023-05-02T08:28:01.724Z,22.51
2023-05-02T08:31:04.432Z,22.59
2023-05-02T08:34:07.335Z,23.24
2023-05-02T08:37:12.090Z,24.39
2023-05-02T08:40:22.111Z,24.99
2023-05-02T08:43:33.474Z,23.91
2023-05-02T08:46:37.277Z,22.72
2023-05-02T08:49:41.128Z,23.65
2023-05-02T08:52:46.116Z,24.45
2023-05-02T08:55:51.015Z,23.76
2023-05-02T08:58:56.482Z,24.98
2023-05-02T09:02:10.441Z,23.65
2023-05-02T09:05:19.339Z,23.29
2023-05-02T09:08:23.857Z,22.56
2023-05-02T09:11:26.709Z,22.53
2023-05-02T09:14:29.581Z,22.22
2023-05-02T09:17:40.601Z,22.39
2023-05-02T09:20:44.949Z,24.00
2023-05-02T09:23:49.309Z,24.92
2023-05-02T09:27:03.054Z,24.25
2023-05-02T09:30:30.843Z,24.54
2023-05-02T09:33:34.512Z,24.60
2023-05-02T09:36:41.759Z,25.66
2023-05-02T09:40:11.683Z,25.87
2023-05-02T09:43:17.160Z,25.69
2023-05-02T09:46:20.255Z,26.13
2023-05-02T09:49:45.838Z,25.60
2023-05-02T09:53:05.119Z,24.40
2023-05-02T09:56:09.397Z,23.09
2023-05-02T09:59:14.586Z,22.79
2023-05-02T10:02:18.296Z,24.22
2023-05-02T10:05:21.532Z,24.64
2023-05-02T10:08:28.667Z,25.49
2023-05-02T10:11:33.631Z,24.76
2023-05-02T10:14:41.648Z,25.21
2023-05-02T10:17:49.257Z,25.84
2023-05-02T10:20:58.719Z,25.21
2023-05-02T10:24:03.629Z,25.86
2023-05-02T10:27:06.935Z,25.95
2023-05-02T10:30:10.793Z,27.11
2023-05-02T10:33:14.833Z,25.08
2023-05-02T10:36:22.433Z,25.27
2023-05-02T10:39:25.244Z,25.77
2023-05-02T10:42:30.355Z,24.08
2023-05-02T10:45:37.414Z,24.44
2023-05-02T10:48:40.775Z,25.00
2023-05-02T10:51:43.756Z,26.02
2023-05-02T10:54:47.394Z,28.23
2023-05-02T10:57:59.190Z,28.22
2023-05-02T11:01:37.948Z,26.77
2023-05-02T11:05:08.314Z,26.73
2023-05-02T11:08:19.451Z,26.05
2023-05-02T11:11:46.933Z,26.22
2023-05-02T11:14:50.080Z,25.56
2023-05-02T11:18:09.165Z,25.27
2023-05-02T11:21:28.585Z,24.81
2023-05-02T11:24:44.809Z,23.71
2023-05-02T11:27:49.279Z,24.43
2023-05-02T11:30:51.900Z,23.85
2023-05-02T11:33:59.352Z,24.12
2023-05-02T11:37:11.702Z,24.49
2023-05-02T11:40:15.380Z,24.59
2023-05-02T11:43:19.936Z,24.82
2023-05-02T11:46:23.107Z,25.52
2023-05-02T11:49:25.894Z,24.83
2023-05-02T11:52:28.862Z,24.32
2023-05-02T11:55:31.545Z,23.68
2023-05-02T11:58:34.967Z,23.52
2023-05-02T12:01:37.526Z,23.76
2023-05-02T12:04:46.430Z,24.16
2023-05-02T12:07:49.485Z,23.84
2023-05-02T12:10:53.918Z,24.53
2023-05-02T12:13:58.972Z,24.49
2023-05-02T12:17:03.888Z,24.26
2023-05-02T12:20:08.932Z,23.98
2023-05-02T12:23:12.241Z,23.93
2023-05-02T12:26:17.628Z,23.99
2023-05-02T12:29:20.875Z,24.05
2023-05-02T12:32:34.550Z,24.12
2023-05-02T12:35:37.764Z,24.31
2023-05-02T12:38:41.974Z,24.37
2023-05-02T12:41:46.277Z,24.23
2023-05-02T12:44:52.453Z,24.40
2023-05-02T12:47:55.997Z,24.03
2023-05-02T12:50:58.620Z,23.80
2023-05-02T12:54:01.906Z,23.62
2023-05-02T12:57:04.635Z,23.59
2023-05-02T13:00:08.499Z,23.57
2023-05-02T13:03:11.228Z,23.61
2023-05-02T13:06:14.105Z,23.46
2023-05-02T13:09:20.099Z,23.60
2023-05-02T13:12:23.509Z,24.02
2023-05-02T13:15:26.680Z,23.83
2023-05-02T13:18:29.672Z,24.03
2023-05-02T13:21:32.572Z,23.86
2023-05-02T13:24:35.414Z,23.62
2023-05-02T13:27:38.209Z,23.32
2023-05-02T13:30:41.390Z,23.34
2023-05-02T13:33:43.980Z,23.41
2023-05-02T13:36:46.939Z,23.62
2023-05-02T13:39:49.416Z,23.49
2023-05-02T13:42:52.244Z,23.53
2023-05-02T13:45:54.966Z,23.35
2023-05-02T13:48:58.335Z,23.42
2023-05-02T13:52:01.016Z,23.32
2023-05-02T13:55:04.980Z,23.12
2023-05-02T13:58:08.325Z,23.31
2023-05-02T14:01:11.242Z,23.35
2023-05-02T14:04:15.049Z,23.37
2023-05-02T14:07:17.796Z,23.42
2023-05-02T14:10:20.828Z,23.32
2023-05-02T14:13:26.200Z,23.26
2023-05-02T14:16:30.121Z,23.27
2023-05-02T14:19:34.024Z,23.20
2023-05-02T14:22:36.900Z,23.33
2023-05-02T14:25:39.434Z,23.22
2023-05-02T14:28:42.536Z,23.31
2023-05-02T14:31:49.073Z,23.22
2023-05-02T14:34:51.823Z,23.10
2023-05-02T14:37:54.358Z,23.02
2023-05-02T14:40:57.338Z,22.86
2023-05-02T14:44:00.001Z,22.78
2023-05-02T14:47:03.118Z,22.80
2023-05-02T14:50:06.635Z,22.72
2023-05-02T14:53:09.716Z,22.56
2023-05-02T14:56:14.779Z,22.53
2023-05-02T14:59:17.639Z,22.57
2023-05-02T15:02:21.837Z,22.55
2023-05-02T15:05:25.055Z,22.63
2023-05-02T15:08:29.465Z,22.47
2023-05-02T15:11:32.520Z,22.45
2023-05-02T15:14:35.402Z,22.44
2023-05-02T15:17:38.315Z,22.50
2023-05-02T15:20:41.060Z,22.55
2023-05-02T15:23:44.113Z,22.57
2023-05-02T15:26:46.994Z,22.49
2023-05-02T15:29:50.348Z,22.67
2023-05-02T15:32:52.978Z,22.59
2023-05-02T15:36:00.727Z,22.80
2023-05-02T15:39:04.578Z,22.75
2023-05-02T15:42:08.568Z,22.83
2023-05-02T15:45:13.349Z,22.60
2023-05-02T15:48:16.259Z,22.69
2023-05-02T15:51:19.007Z,22.67
2023-05-02T15:54:22.390Z,22.64
2023-05-02T15:57:26.275Z,22.55
2023-05-02T16:00:29.303Z,22.49
2023-05-02T16:03:34.562Z,22.49
2023-05-02T16:06:37.194Z,22.48
2023-05-02T16:09:41.791Z,22.48
2023-05-02T16:12:44.300Z,22.49
2023-05-02T16:15:49.360Z,22.40
2023-05-02T16:18:52.234Z,22.35
2023-05-02T16:21:55.273Z,22.33
2023-05-02T16:24:58.641Z,22.19
2023-05-02T16:28:01.624Z,22.17
2023-05-02T16:31:10.958Z,22.16
2023-05-02T16:34:14.121Z,22.16
2023-05-02T16:37:17.232Z,22.16
2023-05-02T16:40:20.414Z,22.17
2023-05-02T16:43:23.695Z,22.09
2023-05-02T16:46:27.455Z,22.12
2023-05-02T16:49:30.036Z,21.99
2023-05-02T16:52:34.232Z,21.93
2023-05-02T16:55:36.780Z,21.88
2023-05-02T16:58:39.914Z,21.90
2023-05-02T17:01:42.593Z,21.79
2023-05-02T17:04:48.596Z,21.83
2023-05-02T17:07:51.539Z,21.58
2023-05-02T17:10:54.537Z,21.24
2023-05-02T17:13:57.248Z,21.21
2023-05-02T17:17:01.339Z,21.02
2023-05-02T17:20:06.408Z,20.57
2023-05-02T17:23:12.345Z,20.49
2023-05-02T17:26:15.614Z,20.53
2023-05-02T17:29:18.683Z,20.25
2023-05-02T17:32:21.905Z,20.21
2023-05-02T17:35:24.836Z,20.36
2023-05-02T17:38:27.514Z,20.35
2023-05-02T17:41:31.401Z,20.28
2023-05-02T17:44:36.867Z,20.25
2023-05-02T17:47:39.885Z,20.19
2023-05-02T17:50:42.986Z,20.14
2023-05-02T17:53:51.576Z,19.92
2023-05-02T17:56:54.483Z,19.83
2023-05-02T17:59:59.606Z,20.11
2023-05-02T18:03:02.596Z,20.18
2023-05-02T18:06:06.129Z,19.94
2023-05-02T18:09:09.892Z,19.86
2023-05-02T18:12:13.355Z,19.83
2023-05-02T18:15:16.567Z,19.93
2023-05-02T18:18:19.922Z,19.79
2023-05-02T18:21:23.349Z,19.71
2023-05-02T18:24:31.661Z,19.68
2023-05-02T18:27:34.458Z,19.53
2023-05-02T18:30:38.077Z,19.29
2023-05-02T18:33:42.043Z,19.16
2023-05-02T18:36:47.860Z,19.04
2023-05-02T18:39:50.564Z,19.24
2023-05-02T18:42:53.902Z,19.24
2023-05-02T18:45:58.483Z,19.10
2023-05-02T18:49:10.585Z,19.34
2023-05-02T18:52:13.506Z,19.43
2023-05-02T18:55:17.285Z,19.28
2023-05-02T18:58:20.222Z,19.06
2023-05-02T19:01:24.594Z,18.76
2023-05-02T19:04:31.937Z,18.81
2023-05-02T19:07:36.283Z,18.83
2023-05-02T19:10:41.390Z,18.67
2023-05-02T19:13:44.391Z,18.84
2023-05-02T19:16:49.753Z,18.50
2023-05-02T19:19:53.737Z,18.60
2023-05-02T19:23:14.699Z,18.26
2023-05-02T19:26:20.930Z,18.45
2023-05-02T19:29:24.173Z,18.13
2023-05-02T19:32:27.748Z,18.17
2023-05-02T19:35:34.040Z,18.22
2023-05-02T19:38:37.267Z,18.07
2023-05-02T19:41:44.304Z,17.95
2023-05-02T19:44:48.403Z,17.88
2023-05-02T19:47:52.800Z,17.89
2023-05-02T19:50:55.977Z,17.92
2023-05-02T19:53:58.986Z,17.87
2023-05-02T19:57:03.057Z,17.62
2023-05-02T20:00:06.573Z,17.48
2023-05-02T20:03:15.403Z,17.68
2023-05-02T20:06:18.493Z,17.83
2023-05-02T20:09:21.639Z,17.72
2023-05-02T20:12:24.476Z,17.36
2023-05-02T20:15:27.608Z,17.35
2023-05-02T20:18:33.753Z,17.24
2023-05-02T20:21:36.487Z,17.17
2023-05-02T20:24:39.676Z,17.00
2023-05-02T20:27:42.971Z,16.64
2023-05-02T20:30:46.114Z,16.33
2023-05-02T20:33:48.660Z,16.38
2023-05-02T20:36:52.559Z,16.45
2023-05-02T20:39:56.286Z,16.50
2023-05-02T20:43:01.866Z,16.57
2023-05-02T20:46:10.259Z,16.43
2023-05-02T20:49:13.331Z,16.23
2023-05-02T20:52:16.199Z,16.28
2023-05-02T20:55:20.317Z,16.15
2023-05-02T20:58:26.351Z,15.89
2023-05-02T21:01:30.438Z,16.12
2023-05-02T21:04:34.312Z,16.06
2023-05-02T21:07:37.040Z,16.02
2023-05-02T21:10:39.773Z,16.10
2023-05-02T21:13:43.191Z,16.16
2023-05-02T21:16:49.826Z,16.00
2023-05-02T21:19:59.748Z,15.89
2023-05-02T21:23:02.482Z,15.83
2023-05-02T21:26:05.638Z,15.84
2023-05-02T21:29:11.119Z,15.80
2023-05-02T21:32:17.058Z,15.85
2023-05-02T21:35:19.804Z,15.67
2023-05-02T21:38:22.641Z,15.74
2023-05-02T21:41:25.516Z,15.62
2023-05-02T21:44:28.344Z,15.78
2023-05-02T21:47:32.680Z,15.77
2023-05-02T21:50:35.803Z,15.51
2023-05-02T21:53:38.508Z,15.49
2023-05-02T21:56:41.327Z,15.80
2023-05-02T21:59:43.875Z,15.72
2023-05-02T22:02:46.984Z,15.44
2023-05-02T22:05:49.925Z,15.46
2023-05-02T22:08:52.581Z,15.56
2023-05-02T22:11:55.689Z,15.68
2023-05-02T22:14:59.639Z,15.66
2023-05-02T22:18:06.669Z,15.63
2023-05-02T22:21:12.166Z,15.47
2023-05-02T22:24:16.875Z,15.48
2023-05-02T22:27:19.383Z,15.41
2023-05-02T22:30:22.298Z,15.06
2023-05-02T22:33:25.392Z,15.02
2023-05-02T22:36:28.235Z,14.93
2023-05-02T22:39:30.712Z,15.10
2023-05-02T22:42:34.397Z,15.13
2023-05-02T22:45:37.583Z,15.09
2023-05-02T22:48:40.548Z,15.04
2023-05-02T22:51:43.527Z,14.96
2023-05-02T22:54:46.367Z,14.94
2023-05-02T22:57:48.903Z,15.05
2023-05-02T23:00:52.071Z,15.19
2023-05-02T23:03:54.854Z,15.23
2023-05-02T23:06:57.812Z,15.22
2023-05-02T23:10:01.323Z,15.17
2023-05-02T23:13:05.329Z,15.03
2023-05-02T23:16:07.933Z,14.97
2023-05-02T23:19:12.307Z,14.83
2023-05-02T23:22:15.096Z,15.05
2023-05-02T23:25:18.782Z,15.01
2023-05-02T23:28:21.534Z,15.16
2023-05-02T23:31:24.475Z,15.07
2023-05-02T23:34:27.300Z,14.97
2023-05-02T23:37:30.231Z,15.00
2023-05-02T23:40:34.820Z,14.86
2023-05-02T23:43:37.928Z,14.76
2023-05-02T23:46:41.486Z,14.68
2023-05-02T23:49:44.503Z,14.74
2023-05-02T23:52:47.100Z,14.67
2023-05-02T23:55:49.919Z,14.69
2023-05-02T23:58:52.547Z,14.67
